Terminal Aerodrome Forecast
Issued by NWS Sterling, VA

Current Version | Previous Version | Text Only | Print | Product List | Glossary Off
Versions: 1 2 3 4 5 6 7 8 9 10 11 12 13

000
FTUS41 KLWX 242330
TAFMRB
TAF
KMRB 242330Z 2500/2524 04003KT P6SM SKC
     FM250800 VRB03KT P6SM BKN050
     FM251400 16008KT P6SM OVC040
     FM251700 16012G20KT P6SM OVC035
     FM252300 17009KT P6SM OVC030=

USA.gov is the U.S. government's official web portal to all federal, state and local government web resources and services.